Time;durP1;ratioP1;P1;durP2;ratioP2;P2;SDS_P1;SDS_P2;PMS_P1;PMS_P2;Temp;Humidity;BMP_temperature;BMP_pressure;BME280_temperature;BME280_humidity;BME280_pressure;Samples;Min_cycle;Max_cycle;Signal;HPM_P1;HPM_P2
2023/09/15 00:01:32;;;;;;;7.38;2.53;;;13.30;99.90;;;;;;5009901;28;20621;-83
2023/09/15 00:03:58;;;;;;;3.85;1.90;;;13.30;99.90;;;;;;4993388;28;20184;-83
2023/09/15 00:06:25;;;;;;;3.67;1.88;;;13.30;99.90;;;;;;4995984;28;20180;-83
2023/09/15 00:08:51;;;;;;;5.60;2.28;;;13.40;99.90;;;;;;4997256;28;20186;-83
2023/09/15 00:11:17;;;;;;;4.03;2.20;;;13.40;99.90;;;;;;5013708;28;20188;-84
2023/09/15 00:13:44;;;;;;;4.93;1.90;;;13.30;99.90;;;;;;4998744;28;20268;-84
2023/09/15 00:16:10;;;;;;;4.90;1.88;;;13.30;99.90;;;;;;4998595;28;20627;-84
2023/09/15 00:18:36;;;;;;;2.83;1.70;;;13.30;99.90;;;;;;4998134;28;20180;-83
2023/09/15 00:21:02;;;;;;;5.13;1.95;;;13.20;99.90;;;;;;4998396;28;20179;-83
2023/09/15 00:23:28;;;;;;;3.90;1.80;;;13.20;99.90;;;;;;4998413;28;20192;-84
2023/09/15 00:25:54;;;;;;;3.97;1.95;;;13.10;99.90;;;;;;4996931;28;20226;-83
2023/09/15 00:28:21;;;;;;;3.28;1.65;;;13.10;99.90;;;;;;4998012;28;20210;-84
2023/09/15 00:30:50;;;;;;;4.28;2.20;;;13.00;99.90;;;;;;4996999;28;20667;-84
2023/09/15 00:33:16;;;;;;;3.83;2.00;;;12.90;99.90;;;;;;4996706;28;20353;-84
2023/09/15 00:35:42;;;;;;;4.28;1.90;;;12.90;99.90;;;;;;4998088;28;20172;-84
2023/09/15 00:38:08;;;;;;;3.30;1.88;;;12.80;99.90;;;;;;4998005;28;20204;-84
2023/09/15 00:40:34;;;;;;;8.27;1.88;;;12.70;99.90;;;;;;4997949;28;20258;-84
2023/09/15 00:42:59;;;;;;;5.15;1.95;;;12.70;99.90;;;;;;4998093;28;20176;-84
2023/09/15 00:45:25;;;;;;;2.85;1.63;;;12.70;99.90;;;;;;4998212;28;20258;-83
2023/09/15 00:47:56;;;;;;;3.80;1.90;;;12.60;99.90;;;;;;4996321;28;20238;-84
2023/09/15 00:50:25;;;;;;;2.83;1.90;;;12.60;99.90;;;;;;4997620;28;20305;-83
2023/09/15 00:53:04;;;;;;;5.07;1.95;;;12.50;99.90;;;;;;4996478;28;20203;-83
2023/09/15 00:55:33;;;;;;;4.00;1.98;;;12.50;99.90;;;;;;4998994;28;20637;-83
2023/09/15 00:58:03;;;;;;;6.07;1.80;;;12.50;99.90;;;;;;4996480;28;20187;-84
2023/09/15 01:00:29;;;;;;;5.38;1.60;;;12.50;99.90;;;;;;4996487;28;20191;-84
2023/09/15 01:02:56;;;;;;;4.10;1.80;;;12.50;99.90;;;;;;4997391;28;20258;-84
2023/09/15 01:05:24;;;;;;;3.58;1.63;;;12.40;99.90;;;;;;4997703;28;20244;-84
2023/09/15 01:07:52;;;;;;;3.78;2.10;;;12.40;99.90;;;;;;4997171;28;20172;-83
2023/09/15 01:10:19;;;;;;;3.88;1.90;;;12.40;99.90;;;;;;4997735;28;20480;-83
2023/09/15 01:12:46;;;;;;;2.85;1.67;;;12.30;99.90;;;;;;4996310;28;20231;-83
2023/09/15 01:15:12;;;;;;;3.53;1.85;;;12.20;99.90;;;;;;4995422;28;20527;-83
2023/09/15 01:18:00;;;;;;;3.55;1.83;;;12.20;99.90;;;;;;4993690;28;20180;-83
2023/09/15 01:21:02;;;;;;;4.07;1.83;;;12.10;99.90;;;;;;5026954;28;20278;-83
2023/09/15 01:24:13;;;;;;;3.20;1.77;;;12.10;99.90;;;;;;5031650;28;20187;-83
2023/09/15 01:26:54;;;;;;;5.95;2.00;;;12.10;99.90;;;;;;5028245;28;20202;-83
2023/09/15 01:29:32;;;;;;;3.58;2.00;;;12.00;99.90;;;;;;5031703;28;20187;-83
2023/09/15 01:32:00;;;;;;;5.10;1.80;;;11.90;99.90;;;;;;5016571;28;20176;-83
2023/09/15 01:34:26;;;;;;;3.35;1.70;;;12.00;99.90;;;;;;5015962;28;20215;-82
2023/09/15 01:36:53;;;;;;;8.40;2.17;;;12.00;99.90;;;;;;5031301;28;20266;-84
2023/09/15 01:39:20;;;;;;;4.72;2.00;;;12.00;99.90;;;;;;5031945;28;20565;-84
2023/09/15 01:41:45;;;;;;;5.18;1.92;;;12.10;99.90;;;;;;5016090;28;20186;-83
2023/09/15 01:44:12;;;;;;;4.72;2.00;;;12.10;99.90;;;;;;5031455;28;20183;-83
2023/09/15 01:46:37;;;;;;;4.57;2.15;;;12.10;99.90;;;;;;5016027;28;20215;-83
2023/09/15 01:49:04;;;;;;;7.95;2.10;;;12.10;99.90;;;;;;5030401;28;20670;-84
2023/09/15 01:51:31;;;;;;;3.58;2.00;;;12.10;99.90;;;;;;5013572;28;20219;-83
2023/09/15 01:53:57;;;;;;;4.18;2.20;;;12.10;99.90;;;;;;5487511;22;20226;-84
2023/09/15 01:56:27;;;;;;;3.85;1.98;;;12.10;99.90;;;;;;5031124;28;20187;-84
2023/09/15 01:58:53;;;;;;;3.00;2.00;;;12.10;99.90;;;;;;5034536;28;20281;-84
2023/09/15 02:01:18;;;;;;;3.78;1.80;;;12.10;99.90;;;;;;5035963;28;20253;-84
2023/09/15 02:03:44;;;;;;;3.90;1.90;;;11.90;99.90;;;;;;5026081;28;20585;-84
2023/09/15 02:06:16;;;;;;;3.78;1.75;;;11.90;99.90;;;;;;5035677;28;20182;-84
2023/09/15 02:08:43;;;;;;;5.47;1.70;;;11.80;99.90;;;;;;5035041;28;20186;-84
2023/09/15 02:11:09;;;;;;;5.38;1.60;;;11.70;99.90;;;;;;5035269;28;20182;-84
2023/09/15 02:13:36;;;;;;;3.72;1.60;;;11.70;99.90;;;;;;5034201;28;20718;-84
2023/09/15 02:16:02;;;;;;;5.45;1.60;;;11.60;99.90;;;;;;5035412;28;20202;-84
2023/09/15 02:18:28;;;;;;;2.60;1.63;;;11.60;99.90;;;;;;5033768;28;20605;-84
2023/09/15 02:20:55;;;;;;;2.20;1.52;;;11.50;99.90;;;;;;5035487;28;20197;-84
2023/09/15 02:23:22;;;;;;;5.55;1.83;;;11.40;99.90;;;;;;5035307;28;20178;-84
2023/09/15 02:25:48;;;;;;;3.22;1.60;;;11.40;99.90;;;;;;5026555;28;20187;-84
2023/09/15 02:28:14;;;;;;;4.78;1.70;;;11.40;99.90;;;;;;5035270;28;20270;-84
2023/09/15 02:30:40;;;;;;;2.38;1.60;;;11.40;99.90;;;;;;5033813;28;20729;-85
2023/09/15 02:33:05;;;;;;;2.50;1.70;;;11.30;99.90;;;;;;5033879;28;20211;-86
2023/09/15 02:35:31;;;;;;;3.47;1.67;;;11.30;99.90;;;;;;5034908;28;20178;-84
2023/09/15 02:37:57;;;;;;;5.18;1.80;;;11.30;99.90;;;;;;5033604;28;20244;-85
2023/09/15 02:40:26;;;;;;;4.18;1.70;;;11.30;99.90;;;;;;5033305;28;20222;-84
2023/09/15 02:42:52;;;;;;;3.75;1.85;;;11.30;99.90;;;;;;5033700;28;20183;-84
2023/09/15 02:45:18;;;;;;;3.30;1.58;;;11.30;99.90;;;;;;5033705;28;20289;-84
2023/09/15 02:47:44;;;;;;;5.32;1.88;;;11.30;99.90;;;;;;5034559;28;20541;-84
2023/09/15 02:50:09;;;;;;;2.45;1.55;;;11.30;99.90;;;;;;5033496;28;20190;-84
2023/09/15 02:52:35;;;;;;;3.33;1.83;;;11.30;99.90;;;;;;5034555;28;20261;-84
2023/09/15 02:55:04;;;;;;;2.33;1.77;;;11.30;99.90;;;;;;5032947;28;20644;-84
2023/09/15 02:57:30;;;;;;;3.88;1.65;;;11.30;99.90;;;;;;5034346;28;20179;-85
2023/09/15 02:59:55;;;;;;;2.38;1.50;;;11.20;99.90;;;;;;5033529;28;20186;-84
2023/09/15 03:02:21;;;;;;;3.22;1.50;;;11.20;99.90;;;;;;5033295;28;20197;-84
2023/09/15 03:04:48;;;;;;;2.22;1.50;;;11.20;99.90;;;;;;5033299;28;20513;-84
2023/09/15 03:07:15;;;;;;;3.70;1.52;;;11.10;99.90;;;;;;5034303;28;20554;-85
2023/09/15 03:09:41;;;;;;;2.50;1.65;;;11.10;99.90;;;;;;5016579;28;20286;-84
2023/09/15 03:12:07;;;;;;;4.78;2.28;;;11.10;99.90;;;;;;5033284;28;20683;-84
2023/09/15 03:14:33;;;;;;;4.75;1.95;;;11.10;99.90;;;;;;5032969;28;20234;-83
2023/09/15 03:16:59;;;;;;;3.28;1.70;;;11.00;99.90;;;;;;5034003;28;20178;-84
2023/09/15 03:19:25;;;;;;;4.80;2.08;;;11.00;99.90;;;;;;5034368;28;20186;-84
2023/09/15 03:21:51;;;;;;;5.03;2.10;;;11.10;99.90;;;;;;5032921;28;20237;-85
2023/09/15 03:24:18;;;;;;;2.90;1.95;;;11.10;99.90;;;;;;5032705;28;20297;-84
2023/09/15 03:26:45;;;;;;;3.92;2.13;;;11.10;99.90;;;;;;5034004;28;20182;-84
2023/09/15 03:29:11;;;;;;;4.38;2.00;;;11.10;99.90;;;;;;5032870;28;20186;-84
2023/09/15 03:31:37;;;;;;;2.85;1.83;;;11.00;99.90;;;;;;5032629;28;20236;-84
2023/09/15 03:34:03;;;;;;;3.95;1.90;;;10.90;99.90;;;;;;5034083;28;20218;-85
2023/09/15 03:36:29;;;;;;;2.22;1.60;;;10.80;99.90;;;;;;5033832;28;20232;-84
2023/09/15 03:38:58;;;;;;;5.45;2.17;;;10.80;99.90;;;;;;5033668;28;20187;-84
2023/09/15 03:41:25;;;;;;;4.25;1.88;;;10.70;99.90;;;;;;5031963;28;20522;-84
2023/09/15 03:43:52;;;;;;;4.95;2.20;;;10.70;99.90;;;;;;5033993;28;20217;-84
2023/09/15 03:46:17;;;;;;;3.17;1.80;;;10.60;99.90;;;;;;5033837;28;20186;-84
2023/09/15 03:48:43;;;;;;;2.45;1.73;;;10.60;99.90;;;;;;5032187;28;20239;-84
2023/09/15 03:51:09;;;;;;;5.35;1.65;;;10.60;99.90;;;;;;5032382;28;20194;-84
2023/09/15 03:53:35;;;;;;;4.40;2.22;;;10.60;99.90;;;;;;5033562;28;20206;-84
2023/09/15 03:56:01;;;;;;;4.43;1.90;;;10.50;99.90;;;;;;5028554;28;20551;-84
2023/09/15 03:58:28;;;;;;;2.20;1.60;;;10.40;99.90;;;;;;5033399;28;20206;-84
2023/09/15 04:00:53;;;;;;;3.30;2.20;;;10.40;99.90;;;;;;5032236;28;21001;-85
2023/09/15 04:03:20;;;;;;;3.92;1.90;;;10.40;99.90;;;;;;5032631;28;20186;-84
2023/09/15 04:05:46;;;;;;;3.63;2.05;;;10.40;99.90;;;;;;5033676;28;20213;-85
2023/09/15 04:08:13;;;;;;;4.47;2.40;;;10.40;99.90;;;;;;5032425;28;20264;-84
2023/09/15 04:10:38;;;;;;;3.47;2.03;;;10.40;99.90;;;;;;5032248;28;20186;-84
2023/09/15 04:13:04;;;;;;;5.18;2.20;;;10.50;99.90;;;;;;5022330;28;20243;-84
2023/09/15 04:15:30;;;;;;;3.47;2.15;;;10.50;99.90;;;;;;5012716;28;20188;-85
2023/09/15 04:17:56;;;;;;;4.10;2.17;;;10.60;99.90;;;;;;5032270;28;20545;-84
2023/09/15 04:20:22;;;;;;;2.65;1.67;;;10.60;99.90;;;;;;5017612;28;20191;-85
2023/09/15 04:22:49;;;;;;;2.80;1.95;;;10.50;99.90;;;;;;5033875;28;20257;-84
2023/09/15 04:25:14;;;;;;;4.57;2.05;;;10.60;99.90;;;;;;5033517;28;20275;-85
2023/09/15 04:27:40;;;;;;;3.63;2.00;;;10.60;99.90;;;;;;5031911;28;20561;-84
2023/09/15 04:30:07;;;;;;;4.70;2.40;;;10.60;99.90;;;;;;5033658;28;20229;-84
2023/09/15 04:32:33;;;;;;;4.53;2.30;;;10.50;99.90;;;;;;5020140;28;20198;-85
2023/09/15 04:34:58;;;;;;;5.82;2.00;;;10.40;99.90;;;;;;5032151;28;20222;-85
2023/09/15 04:37:24;;;;;;;4.70;2.10;;;10.30;99.90;;;;;;5028149;28;20187;-85
2023/09/15 04:39:50;;;;;;;6.32;2.50;;;10.30;99.90;;;;;;5032096;28;20593;-85
2023/09/15 04:42:16;;;;;;;2.88;2.22;;;10.30;99.90;;;;;;5014506;28;20188;-85
2023/09/15 04:44:42;;;;;;;3.03;2.10;;;10.30;99.90;;;;;;5032335;28;20193;-89
2023/09/15 04:47:09;;;;;;;5.60;1.88;;;10.30;99.90;;;;;;5032315;28;20193;-84
2023/09/15 04:49:35;;;;;;;6.68;2.20;;;10.40;99.90;;;;;;5028262;28;20191;-85
2023/09/15 04:52:01;;;;;;;6.43;2.40;;;10.40;99.90;;;;;;5019959;28;20281;-85
2023/09/15 04:54:28;;;;;;;4.72;2.80;;;10.40;99.90;;;;;;5028283;28;20317;-84
2023/09/15 04:56:54;;;;;;;3.47;2.50;;;10.50;99.90;;;;;;5028175;28;20232;-85
2023/09/15 04:59:20;;;;;;;3.17;1.98;;;10.40;99.90;;;;;;5035233;28;20183;-85
2023/09/15 05:01:46;;;;;;;4.57;2.10;;;10.40;99.90;;;;;;5036589;28;20182;-84
2023/09/15 05:04:18;;;;;;;2.55;1.90;;;10.40;99.90;;;;;;5036123;28;20186;-84
2023/09/15 05:06:44;;;;;;;4.47;2.03;;;10.40;99.90;;;;;;5034886;28;20183;-84
2023/09/15 05:09:10;;;;;;;2.92;1.92;;;10.40;99.90;;;;;;5028526;28;20683;-84
2023/09/15 05:11:39;;;;;;;8.30;2.58;;;10.40;99.90;;;;;;5035925;28;20179;-84
2023/09/15 05:14:05;;;;;;;5.05;1.98;;;10.40;99.90;;;;;;5020339;28;20210;-84
2023/09/15 05:16:32;;;;;;;7.35;2.17;;;10.50;99.90;;;;;;5032682;28;20218;-84
2023/09/15 05:18:58;;;;;;;6.80;2.38;;;10.40;99.90;;;;;;5022870;28;20183;-85
2023/09/15 05:21:24;;;;;;;5.95;2.45;;;10.40;99.90;;;;;;5025170;28;20178;-84
2023/09/15 05:23:49;;;;;;;3.70;2.15;;;10.40;99.90;;;;;;5035218;28;20209;-85
2023/09/15 05:26:15;;;;;;;4.07;2.13;;;10.50;99.90;;;;;;5035047;28;20213;-85
2023/09/15 05:28:41;;;;;;;5.68;2.30;;;10.50;99.90;;;;;;5034657;28;20191;-84
2023/09/15 05:31:07;;;;;;;4.35;2.50;;;10.60;99.90;;;;;;5036426;28;20183;-84
2023/09/15 05:33:33;;;;;;;3.40;1.90;;;10.60;99.90;;;;;;5025614;28;20214;-84
2023/09/15 05:35:59;;;;;;;4.53;2.30;;;10.60;99.90;;;;;;5035165;28;20194;-84
2023/09/15 05:38:26;;;;;;;6.13;2.25;;;10.70;99.90;;;;;;5019968;28;20183;-84
2023/09/15 05:40:52;;;;;;;4.18;2.20;;;10.70;99.90;;;;;;5035417;28;20194;-85
2023/09/15 05:43:19;;;;;;;3.72;2.17;;;10.80;99.90;;;;;;5034940;28;20281;-85
2023/09/15 05:45:45;;;;;;;4.20;2.22;;;10.90;99.90;;;;;;5020901;28;20561;-85
2023/09/15 05:48:17;;;;;;;3.00;1.95;;;11.00;99.90;;;;;;5035979;28;20183;-85
2023/09/15 05:50:44;;;;;;;4.70;2.20;;;11.00;99.90;;;;;;5029115;28;20190;-85
2023/09/15 05:53:10;;;;;;;8.05;2.33;;;11.00;99.90;;;;;;5035022;28;20218;-84
2023/09/15 05:55:35;;;;;;;5.22;1.95;;;11.10;99.90;;;;;;5034516;28;20569;-85
2023/09/15 05:58:01;;;;;;;3.17;1.88;;;11.20;99.90;;;;;;5035635;28;20179;-84
2023/09/15 06:00:27;;;;;;;4.53;2.15;;;11.30;99.90;;;;;;5034102;28;20190;-84
2023/09/15 06:02:53;;;;;;;3.67;2.13;;;11.30;99.90;;;;;;5034363;28;20214;-84
2023/09/15 06:05:21;;;;;;;6.57;2.67;;;11.50;99.90;;;;;;5034301;28;20189;-84
2023/09/15 06:07:51;;;;;;;3.85;2.10;;;11.50;99.90;;;;;;5035206;28;20182;-85
2023/09/15 06:10:17;;;;;;;4.40;2.22;;;11.60;99.90;;;;;;5035752;28;20212;-84
2023/09/15 06:12:43;;;;;;;3.65;1.95;;;11.60;99.90;;;;;;5019075;28;20190;-85
2023/09/15 06:15:10;;;;;;;4.50;1.98;;;11.60;99.90;;;;;;5034376;28;20275;-85
2023/09/15 06:17:36;;;;;;;4.43;1.98;;;11.60;99.90;;;;;;5032851;28;20182;-85
2023/09/15 06:20:04;;;;;;;6.55;2.63;;;11.70;99.90;;;;;;5029884;28;20187;-85
2023/09/15 06:22:30;;;;;;;3.38;1.98;;;11.80;99.90;;;;;;5030971;28;20210;-84
2023/09/15 06:24:56;;;;;;;5.88;2.67;;;11.90;99.90;;;;;;5035141;28;20217;-83
2023/09/15 06:27:21;;;;;;;3.75;2.05;;;11.90;99.90;;;;;;5033754;28;20571;-84
2023/09/15 06:29:47;;;;;;;4.30;2.28;;;12.00;99.90;;;;;;5033857;28;20193;-85
2023/09/15 06:32:13;;;;;;;5.10;2.40;;;12.10;99.90;;;;;;5035349;28;20652;-85
2023/09/15 06:34:39;;;;;;;5.20;2.20;;;12.10;99.90;;;;;;5035081;28;20206;-84
2023/09/15 06:37:05;;;;;;;4.78;2.22;;;12.20;99.90;;;;;;5034721;28;20190;-85
2023/09/15 06:39:33;;;;;;;4.95;2.35;;;12.30;99.90;;;;;;5033678;28;20189;-84
2023/09/15 06:41:59;;;;;;;5.20;2.15;;;12.30;99.90;;;;;;5035165;28;20206;-84
2023/09/15 06:44:25;;;;;;;5.32;2.15;;;12.50;99.90;;;;;;5033725;28;20629;-84
2023/09/15 06:46:50;;;;;;;6.60;2.15;;;12.50;99.90;;;;;;5034796;28;20198;-85
2023/09/15 06:49:21;;;;;;;4.55;2.50;;;12.60;99.90;;;;;;5033595;28;20183;-84
2023/09/15 06:51:48;;;;;;;5.90;2.40;;;12.70;99.90;;;;;;5034573;28;20170;-84
2023/09/15 06:54:14;;;;;;;4.20;2.15;;;12.70;99.90;;;;;;5034532;28;20723;-85
2023/09/15 06:56:39;;;;;;;4.60;2.45;;;12.80;99.90;;;;;;5034433;28;20182;-85
2023/09/15 06:59:05;;;;;;;5.15;2.00;;;12.90;99.90;;;;;;5017206;28;20236;-84
2023/09/15 07:01:31;;;;;;;4.88;2.35;;;12.90;99.90;;;;;;5034690;28;20497;-84
2023/09/15 07:03:56;;;;;;;6.15;2.65;;;13.00;99.90;;;;;;5033281;28;20194;-84
2023/09/15 07:06:22;;;;;;;4.95;2.22;;;13.10;99.90;;;;;;5032856;28;20277;-85
2023/09/15 07:08:49;;;;;;;7.20;2.53;;;13.10;99.90;;;;;;5020063;28;20182;-83
2023/09/15 07:11:15;;;;;;;7.35;2.90;;;13.20;99.90;;;;;;5025503;28;20187;-84
2023/09/15 07:13:41;;;;;;;4.57;2.17;;;13.40;99.90;;;;;;5032849;28;20214;-84
2023/09/15 07:16:07;;;;;;;5.47;2.50;;;13.50;99.90;;;;;;5020488;28;20199;-84
2023/09/15 07:18:34;;;;;;;6.72;3.20;;;13.70;99.90;;;;;;5028798;28;20193;-84
2023/09/15 07:20:59;;;;;;;4.53;2.28;;;13.90;99.90;;;;;;5010643;28;20187;-84
2023/09/15 07:23:25;;;;;;;5.28;2.60;;;14.00;99.90;;;;;;5028452;28;20232;-83
2023/09/15 07:25:51;;;;;;;3.75;2.35;;;14.20;99.90;;;;;;5026252;28;20187;-84
2023/09/15 07:28:16;;;;;;;6.70;2.78;;;14.30;99.90;;;;;;5033957;28;20187;-84
2023/09/15 07:30:42;;;;;;;6.53;2.40;;;14.40;99.90;;;;;;5026351;28;20431;-83
2023/09/15 07:33:08;;;;;;;6.18;2.72;;;14.60;99.90;;;;;;5034018;28;20214;-84
2023/09/15 07:35:38;;;;;;;8.48;2.60;;;14.70;99.90;;;;;;5033661;28;20182;-83
2023/09/15 07:38:05;;;;;;;7.07;2.28;;;14.90;99.90;;;;;;5032836;28;20783;-83
2023/09/15 07:40:34;;;;;;;3.85;1.92;;;14.90;99.90;;;;;;5033958;28;20257;-84
2023/09/15 07:43:00;;;;;;;4.10;2.22;;;15.10;99.90;;;;;;5016279;28;20183;-83
2023/09/15 07:45:27;;;;;;;5.15;2.42;;;15.10;99.90;;;;;;5031861;28;20667;-83
2023/09/15 07:47:52;;;;;;;7.38;3.05;;;15.20;99.90;;;;;;5017481;28;20532;-83
2023/09/15 07:50:18;;;;;;;6.22;2.65;;;15.30;99.90;;;;;;5032331;28;20272;-83
2023/09/15 07:52:45;;;;;;;3.80;2.60;;;15.50;99.90;;;;;;5032879;28;20190;-84
2023/09/15 07:55:11;;;;;;;3.97;2.28;;;15.60;99.90;;;;;;5032490;28;20288;-83
2023/09/15 07:57:39;;;;;;;5.20;2.58;;;15.70;99.90;;;;;;5049007;28;20187;-85
2023/09/15 08:00:07;;;;;;;5.30;2.70;;;15.90;99.90;;;;;;5033818;28;20185;-83
2023/09/15 08:02:33;;;;;;;6.30;2.75;;;15.90;99.90;;;;;;5033631;28;20179;-84
2023/09/15 08:04:58;;;;;;;3.65;2.58;;;15.90;99.90;;;;;;5015675;28;20343;-83
2023/09/15 08:07:24;;;;;;;6.25;2.40;;;16.00;99.90;;;;;;5033033;28;20292;-83
2023/09/15 08:09:50;;;;;;;5.97;3.10;;;16.00;99.90;;;;;;5032478;28;20186;-83
2023/09/15 08:12:19;;;;;;;5.90;2.60;;;16.20;99.90;;;;;;5033274;28;20178;-84
2023/09/15 08:14:46;;;;;;;5.30;2.60;;;16.20;99.90;;;;;;5017657;28;20214;-85
2023/09/15 08:17:12;;;;;;;8.52;3.05;;;16.40;99.90;;;;;;5035067;28;20178;-84
2023/09/15 08:19:39;;;;;;;6.38;3.13;;;16.40;99.90;;;;;;5032710;28;20248;-87
2023/09/15 08:22:05;;;;;;;6.43;2.60;;;16.60;99.90;;;;;;5028252;28;20532;-84
2023/09/15 08:24:31;;;;;;;4.75;2.50;;;16.70;99.90;;;;;;5035155;28;20616;-91
2023/09/15 08:26:57;;;;;;;4.00;2.42;;;16.70;99.90;;;;;;5036421;28;20610;-84
2023/09/15 08:29:23;;;;;;;4.78;2.47;;;16.70;99.90;;;;;;5037434;28;20182;-85
2023/09/15 08:31:49;;;;;;;5.55;2.63;;;16.80;99.90;;;;;;5036152;28;20193;-83
2023/09/15 08:34:15;;;;;;;6.30;2.78;;;17.00;99.90;;;;;;5039346;28;20580;-84
2023/09/15 08:36:41;;;;;;;5.20;2.80;;;17.00;99.90;;;;;;5037777;28;20187;-93
2023/09/15 08:39:07;;;;;;;5.32;2.65;;;17.10;99.90;;;;;;5032139;28;20179;-84
2023/09/15 08:41:36;;;;;;;5.90;2.35;;;17.10;99.90;;;;;;5041771;28;20187;-90
2023/09/15 08:44:02;;;;;;;4.72;2.50;;;17.10;99.90;;;;;;5030518;28;20184;-88
2023/09/15 08:46:31;;;;;;;5.25;2.58;;;17.20;99.90;;;;;;5019679;28;20184;-89
2023/09/15 08:48:58;;;;;;;3.78;2.50;;;17.30;99.90;;;;;;5040324;28;20190;-88
2023/09/15 08:51:25;;;;;;;3.42;2.38;;;17.30;99.90;;;;;;5038684;28;20202;-86
2023/09/15 08:53:56;;;;;;;3.83;2.30;;;17.40;99.90;;;;;;5022384;28;20300;-87
2023/09/15 08:56:22;;;;;;;4.47;2.50;;;17.50;99.90;;;;;;5005284;28;20653;-84
2023/09/15 08:58:48;;;;;;;5.07;2.15;;;17.60;99.90;;;;;;5019372;28;20194;-84
2023/09/15 09:01:18;;;;;;;4.80;2.40;;;17.60;99.90;;;;;;5052359;28;20269;-84
2023/09/15 09:03:43;;;;;;;4.05;2.40;;;17.70;99.90;;;;;;5035859;28;20224;-84
2023/09/15 09:06:12;;;;;;;5.22;2.53;;;17.80;99.90;;;;;;5035480;28;20217;-86
2023/09/15 09:08:46;;;;;;;4.03;2.33;;;17.80;99.90;;;;;;5051954;28;20289;-86
2023/09/15 09:11:14;;;;;;;4.30;2.25;;;17.90;99.90;;;;;;5036758;28;20182;-85
2023/09/15 09:13:40;;;;;;;5.03;2.53;;;17.90;99.90;;;;;;5035328;28;20222;-84
2023/09/15 09:16:10;;;;;;;3.40;2.33;;;18.00;99.90;;;;;;5023633;28;20704;-83
2023/09/15 09:18:36;;;;;;;3.85;2.20;;;18.10;99.90;;;;;;5025787;28;20200;-84
2023/09/15 09:21:04;;;;;;;5.40;2.60;;;18.20;99.90;;;;;;5036554;28;20269;-85
2023/09/15 09:23:30;;;;;;;4.78;2.60;;;18.20;99.90;;;;;;5033857;28;20225;-84
2023/09/15 09:25:59;;;;;;;3.60;2.30;;;18.20;99.90;;;;;;5022380;28;20187;-85
2023/09/15 09:28:28;;;;;;;3.45;2.45;;;18.30;99.90;;;;;;5036166;28;20186;-84
2023/09/15 09:30:55;;;;;;;4.10;2.30;;;18.30;99.90;;;;;;5036557;28;20185;-84
2023/09/15 09:33:22;;;;;;;3.67;2.20;;;18.30;99.90;;;;;;5035290;28;20214;-84
2023/09/15 09:35:48;;;;;;;3.50;2.15;;;18.40;99.90;;;;;;5035149;28;20244;-85
2023/09/15 09:38:15;;;;;;;4.65;2.20;;;18.50;99.90;;;;;;5035451;28;20183;-85
2023/09/15 09:40:41;;;;;;;3.60;2.20;;;18.60;99.90;;;;;;5036370;28;20228;-84
2023/09/15 09:43:07;;;;;;;4.65;1.98;;;18.60;99.90;;;;;;5035138;28;20190;-85
2023/09/15 09:45:34;;;;;;;3.40;2.25;;;18.60;99.90;;;;;;5036269;28;20183;-85
2023/09/15 09:48:00;;;;;;;6.03;2.30;;;18.70;99.90;;;;;;5029731;28;20224;-85
2023/09/15 09:50:26;;;;;;;4.13;2.15;;;18.70;99.90;;;;;;5036040;28;20203;-84
2023/09/15 09:52:53;;;;;;;4.75;2.28;;;18.70;99.90;;;;;;5034481;28;20222;-84
2023/09/15 09:55:20;;;;;;;4.75;2.20;;;18.80;99.90;;;;;;5035808;28;20316;-85
2023/09/15 09:57:46;;;;;;;4.13;2.53;;;18.80;99.90;;;;;;5035534;28;20503;-85
2023/09/15 10:00:20;;;;;;;5.05;2.00;;;19.00;99.90;;;;;;5034430;28;20214;-84
2023/09/15 10:02:45;;;;;;;3.50;2.13;;;19.10;99.90;;;;;;5034758;28;20453;-85
2023/09/15 10:05:11;;;;;;;3.58;2.35;;;19.30;99.90;;;;;;5035852;28;20218;-84
2023/09/15 10:07:38;;;;;;;5.05;2.47;;;19.30;99.90;;;;;;5035155;28;20183;-85
2023/09/15 10:10:06;;;;;;;3.53;2.35;;;19.30;99.90;;;;;;5035686;28;20524;-85
2023/09/15 10:12:33;;;;;;;6.82;2.88;;;19.30;99.90;;;;;;5032130;28;20186;-86
2023/09/15 10:14:59;;;;;;;4.20;2.63;;;19.40;99.90;;;;;;5020937;28;20308;-85
2023/09/15 10:17:27;;;;;;;5.80;2.50;;;19.50;99.90;;;;;;5027709;28;20556;-84
2023/09/15 10:19:53;;;;;;;5.55;2.72;;;19.50;99.90;;;;;;5034128;28;20182;-84
2023/09/15 10:22:20;;;;;;;3.28;2.38;;;19.50;99.90;;;;;;5033822;28;20189;-84
2023/09/15 10:24:53;;;;;;;5.40;2.90;;;19.40;99.90;;;;;;5035309;28;20210;-85
2023/09/15 10:27:19;;;;;;;3.83;2.42;;;19.50;99.90;;;;;;5033933;28;20182;-83
2023/09/15 10:29:46;;;;;;;7.03;2.50;;;19.50;99.90;;;;;;5034078;28;20232;-84
2023/09/15 10:32:20;;;;;;;4.70;2.70;;;19.60;99.90;;;;;;5004656;28;20226;-82
2023/09/15 10:34:48;;;;;;;4.20;2.50;;;19.60;99.90;;;;;;5034552;28;20206;-84
2023/09/15 10:37:13;;;;;;;3.47;2.33;;;19.60;99.90;;;;;;5033023;28;20190;-84
2023/09/15 10:39:44;;;;;;;3.25;2.40;;;19.70;99.90;;;;;;5035102;28;20639;-86
2023/09/15 10:42:13;;;;;;;2.53;2.13;;;19.80;99.90;;;;;;5035332;28;20179;-87
2023/09/15 10:44:42;;;;;;;4.63;2.17;;;19.90;99.90;;;;;;5034823;28;20189;-84
2023/09/15 10:47:18;;;;;;;3.30;2.30;;;20.00;99.90;;;;;;5034358;28;20210;-85
2023/09/15 10:49:51;;;;;;;2.92;1.85;;;20.10;99.90;;;;;;5033671;28;20517;-86
2023/09/15 10:52:18;;;;;;;5.43;2.50;;;20.20;99.90;;;;;;5033423;28;20520;-86
2023/09/15 10:54:43;;;;;;;2.92;2.17;;;20.30;99.90;;;;;;5034554;28;20286;-85
2023/09/15 10:57:09;;;;;;;4.00;2.20;;;20.30;99.90;;;;;;5034515;28;20525;-83
2023/09/15 10:59:36;;;;;;;3.90;2.25;;;20.30;99.90;;;;;;5034555;28;20209;-86
2023/09/15 11:02:03;;;;;;;4.18;1.92;;;20.30;99.90;;;;;;5033950;28;20275;-87
2023/09/15 11:04:29;;;;;;;4.63;2.20;;;20.40;99.90;;;;;;5033608;28;20186;-87
2023/09/15 11:06:56;;;;;;;3.08;1.90;;;20.40;99.90;;;;;;5020507;28;20208;-89
2023/09/15 11:09:23;;;;;;;4.35;1.95;;;20.50;99.90;;;;;;5018685;28;20195;-87
2023/09/15 11:11:51;;;;;;;4.82;1.90;;;20.60;99.90;;;;;;5026260;28;20649;-85
2023/09/15 11:14:24;;;;;;;2.42;1.90;;;20.60;99.90;;;;;;5026078;28;20210;-84
2023/09/15 11:16:54;;;;;;;3.40;2.00;;;20.70;99.90;;;;;;5016962;28;20182;-84
2023/09/15 11:19:23;;;;;;;4.25;1.95;;;20.70;99.90;;;;;;5031906;28;20504;-86
2023/09/15 11:21:49;;;;;;;4.05;2.38;;;20.80;99.90;;;;;;5008899;28;20612;-83
2023/09/15 11:24:16;;;;;;;3.80;2.00;;;20.90;99.90;;;;;;5032769;28;20194;-86
2023/09/15 11:26:49;;;;;;;5.82;1.92;;;20.80;99.90;;;;;;5032692;28;20253;-83
2023/09/15 11:29:25;;;;;;;4.75;2.08;;;20.90;99.90;;;;;;5034245;28;20178;-85
2023/09/15 11:31:53;;;;;;;3.63;2.10;;;20.90;99.90;;;;;;5032917;28;20189;-84
2023/09/15 11:34:19;;;;;;;5.05;2.10;;;20.90;99.90;;;;;;5034260;28;20254;-84
2023/09/15 11:36:45;;;;;;;3.10;2.10;;;20.90;99.90;;;;;;5033519;28;20540;-84
2023/09/15 11:39:14;;;;;;;4.65;2.30;;;20.80;99.90;;;;;;5032779;28;20273;-87
2023/09/15 11:41:55;;;;;;;4.38;2.25;;;20.90;99.90;;;;;;5033972;28;20516;-84
2023/09/15 11:44:29;;;;;;;4.70;2.25;;;20.90;99.90;;;;;;5034058;28;20622;-85
2023/09/15 11:46:56;;;;;;;3.03;2.38;;;21.00;99.90;;;;;;5018138;28;20239;-84
2023/09/15 11:49:23;;;;;;;5.38;2.25;;;20.90;99.90;;;;;;5032770;28;20204;-83
2023/09/15 11:51:49;;;;;;;3.10;2.00;;;20.90;99.90;;;;;;5016345;28;20535;-83
2023/09/15 11:54:16;;;;;;;3.97;2.15;;;20.90;99.90;;;;;;5032406;28;20234;-83
2023/09/15 11:56:43;;;;;;;4.70;2.17;;;21.00;99.90;;;;;;5033760;28;20193;-85
2023/09/15 11:59:09;;;;;;;7.68;2.15;;;21.00;99.90;;;;;;5033940;28;20324;-83
2023/09/15 12:01:36;;;;;;;4.10;2.20;;;21.00;99.90;;;;;;5033860;28;20641;-83
2023/09/15 12:04:05;;;;;;;3.72;2.60;;;21.10;99.90;;;;;;5036720;28;20186;-83
2023/09/15 12:06:32;;;;;;;4.65;2.40;;;21.10;99.90;;;;;;5036329;28;20297;-86
2023/09/15 12:08:58;;;;;;;4.20;1.95;;;21.20;99.90;;;;;;5031878;28;20532;-82
2023/09/15 12:11:24;;;;;;;3.38;2.20;;;21.30;99.90;;;;;;5034392;28;20510;-81
2023/09/15 12:13:54;;;;;;;3.35;2.17;;;21.40;99.90;;;;;;5036565;28;20218;-81
2023/09/15 12:16:27;;;;;;;4.20;2.28;;;21.50;99.90;;;;;;5036444;28;20198;-82
2023/09/15 12:18:53;;;;;;;4.80;2.33;;;21.50;99.90;;;;;;5036359;28;20260;-83
2023/09/15 12:21:26;;;;;;;5.38;2.13;;;21.50;99.90;;;;;;5027935;28;20186;-83
2023/09/15 12:24:07;;;;;;;3.17;1.92;;;21.50;99.90;;;;;;5020187;28;20186;-84
2023/09/15 12:26:32;;;;;;;4.32;2.47;;;21.60;99.90;;;;;;5035989;28;20182;-84
2023/09/15 12:28:59;;;;;;;5.28;2.00;;;21.60;99.90;;;;;;5036110;28;20193;-83
2023/09/15 12:31:26;;;;;;;3.80;2.00;;;21.70;99.90;;;;;;5037387;28;20187;-80
2023/09/15 12:33:53;;;;;;;3.92;2.08;;;21.80;99.90;;;;;;5035916;28;20327;-81
2023/09/15 12:36:19;;;;;;;2.95;2.10;;;21.90;99.90;;;;;;5035416;28;20559;-82
2023/09/15 12:38:45;;;;;;;8.13;2.10;;;21.90;99.90;;;;;;5037036;28;20552;-82
2023/09/15 12:41:13;;;;;;;3.67;1.90;;;21.90;99.90;;;;;;5034480;28;20183;-81
2023/09/15 12:43:39;;;;;;;2.83;2.17;;;21.90;99.90;;;;;;5020879;28;20190;-81
2023/09/15 12:46:05;;;;;;;2.67;2.03;;;21.90;99.90;;;;;;5035707;28;20185;-82
2023/09/15 12:48:30;;;;;;;3.03;2.00;;;21.90;99.90;;;;;;5036976;28;20213;-83